Estestar — 3ECR8 — position and weather

sailwx.info

Track history (hours):
 
Tides and Currents Weather Stations Pressure Air Temp Water Temp Dewpoint Dewpoint Depression Visibility Wind Speed Wind Dir Waves Ship Positions

Estestar

Last reported at 2015-Mar-21 14:27 UTC. Time now 2015-Mar-28 11:07 UTC.
Position N 41°21' E 029°14'.

Length 133 m; draft 4.7 m.

Type: Cargo ship. MMSI: 371448000.

Date/timePositionNaut miles runAvg speedWind from/ knotsBaromVisibWave heightAir tempDewpointWater temp
2015-Mar-21 14:27N 41°21' E 029°14'5 5.9
2015-Mar-21 13:33N 41°16' E 029°12'19 6.4
2015-Mar-21 10:33N 40°59' E 028°60'5 4.6
2015-Mar-21 09:32N 40°55' E 028°56'2 2.0
2015-Mar-21 08:17N 40°57' E 028°54'0 0.0
2015-Mar-21 07:23N 40°57' E 028°54'0 0.0
2015-Mar-21 06:05N 40°57' E 028°54'0 0.0
2015-Mar-21 05:23N 40°57' E 028°54'0 0.0
2015-Mar-21 04:05N 40°57' E 028°54'0 0.0
2015-Mar-20 23:33N 40°57' E 028°54'0 0.0
2015-Mar-20 22:21N 40°57' E 028°54'0 0.0
2015-Mar-20 21:10N 40°57' E 028°54'0 0.0
2015-Mar-20 20:33N 40°57' E 028°54'0 0.0
2015-Mar-20 19:31N 40°57' E 028°54'0 0.0
2015-Mar-20 18:33N 40°57' E 028°54'0 0.0
2015-Mar-20 17:33N 40°57' E 028°54'4 4.2
2015-Mar-20 16:33N 40°55' E 028°59'9 8.6
2015-Mar-20 15:33N 40°49' E 029°06'7 6.3
2015-Mar-20 14:31N 40°51' E 029°15'0 0.0
2015-Mar-20 13:25N 40°51' E 029°15'0 0.0
2015-Mar-20 12:31N 40°51' E 029°15'0 0.1
2015-Mar-20 11:22N 40°51' E 029°15'0 0.0
2015-Mar-20 10:28N 40°51' E 029°15'0 0.0
2015-Mar-20 09:16N 40°51' E 029°15'0 0.0
2015-Mar-20 08:28N 40°51' E 029°15'0 0.1
2015-Mar-20 07:22N 40°51' E 029°15'0 0.0
2015-Mar-20 06:22N 40°51' E 029°15'0 0.0
2015-Mar-20 05:16N 40°51' E 029°15'0 0.0
2015-Mar-20 04:31N 40°51' E 029°15'0 0.0
2015-Mar-20 03:25N 40°51' E 029°15'0 0.0
2015-Mar-20 02:25N 40°51' E 029°15'0 0.0
2015-Mar-20 01:07N 40°51' E 029°15'0 0.0
2015-Mar-20 00:31N 40°51' E 029°15'0 0.0
2015-Mar-19 23:31N 40°51' E 029°15'0 0.0
2015-Mar-19 22:31N 40°51' E 029°15'0 0.0
2015-Mar-19 21:31N 40°51' E 029°15'  
2015-Mar-17 16:29N 40°57' E 028°53'0 0.0
2015-Mar-17 15:29N 40°57' E 028°54'0 0.0
2015-Mar-17 14:17N 40°57' E 028°53'0 0.0
2015-Mar-17 13:23N 40°57' E 028°53'0 0.0
2015-Mar-17 11:29N 40°57' E 028°54'0 0.0
2015-Mar-17 09:11N 40°57' E 028°54'0 0.1
2015-Mar-17 08:23N 40°57' E 028°54'0 0.1
2015-Mar-17 07:29N 40°57' E 028°54'0 0.0
2015-Mar-17 06:23N 40°57' E 028°54'0 0.0
2015-Mar-17 05:23N 40°57' E 028°54'0 0.0
2015-Mar-17 04:29N 40°57' E 028°54'0 0.0
2015-Mar-17 03:11N 40°57' E 028°54'0 0.0
2015-Mar-17 02:05N 40°57' E 028°54'0 0.0
2015-Mar-17 01:17N 40°57' E 028°54'0 0.0
2015-Mar-17 00:29N 40°57' E 028°54'0 0.0
2015-Mar-16 23:29N 40°57' E 028°54'0 0.0
2015-Mar-16 22:29N 40°57' E 028°54'0 0.0
2015-Mar-16 21:23N 40°57' E 028°54'0 0.0
2015-Mar-16 20:29N 40°57' E 028°54'0 0.0
2015-Mar-16 19:29N 40°57' E 028°54'0 0.0
2015-Mar-16 18:34N 40°57' E 028°54'0 0.0
2015-Mar-16 17:33N 40°57' E 028°54'0 0.0
2015-Mar-16 16:33N 40°57' E 028°54'0 0.0
2015-Mar-16 15:34N 40°57' E 028°54'0 0.0
2015-Mar-16 14:33N 40°57' E 028°54'0 0.0
2015-Mar-16 13:33N 40°57' E 028°54'0 0.0
2015-Mar-16 12:32N 40°57' E 028°54'0 0.0
2015-Mar-16 11:32N 40°57' E 028°54'  
Track history (hours):
 
Tides and Currents Weather Stations Pressure Air Temp Water Temp Dewpoint Dewpoint Depression Visibility Wind Speed Wind Dir Waves Ship Positions

Estestar

Last reported at 2015-Mar-21 14:27 UTC. Time now 2015-Mar-28 11:07 UTC.
Position N 41°21' E 029°14'.

Length 133 m; draft 4.7 m.

Type: Cargo ship. MMSI: 371448000.

Date/timePositionNaut miles runAvg speedWind from/ knotsBaromVisibWave heightAir tempDewpointWater temp
2015-Mar-21 14:27N 41°21' E 029°14'5 5.9
2015-Mar-21 13:33N 41°16' E 029°12'19 6.4
2015-Mar-21 10:33N 40°59' E 028°60'5 4.6
2015-Mar-21 09:32N 40°55' E 028°56'2 2.0
2015-Mar-21 08:17N 40°57' E 028°54'0 0.0
2015-Mar-21 07:23N 40°57' E 028°54'0 0.0
2015-Mar-21 06:05N 40°57' E 028°54'0 0.0
2015-Mar-21 05:23N 40°57' E 028°54'0 0.0
2015-Mar-21 04:05N 40°57' E 028°54'0 0.0
2015-Mar-20 23:33N 40°57' E 028°54'0 0.0
2015-Mar-20 22:21N 40°57' E 028°54'0 0.0
2015-Mar-20 21:10N 40°57' E 028°54'0 0.0
2015-Mar-20 20:33N 40°57' E 028°54'0 0.0
2015-Mar-20 19:31N 40°57' E 028°54'0 0.0
2015-Mar-20 18:33N 40°57' E 028°54'0 0.0
2015-Mar-20 17:33N 40°57' E 028°54'4 4.2
2015-Mar-20 16:33N 40°55' E 028°59'9 8.6
2015-Mar-20 15:33N 40°49' E 029°06'7 6.3
2015-Mar-20 14:31N 40°51' E 029°15'0 0.0
2015-Mar-20 13:25N 40°51' E 029°15'0 0.0
2015-Mar-20 12:31N 40°51' E 029°15'0 0.1
2015-Mar-20 11:22N 40°51' E 029°15'0 0.0
2015-Mar-20 10:28N 40°51' E 029°15'0 0.0
2015-Mar-20 09:16N 40°51' E 029°15'0 0.0
2015-Mar-20 08:28N 40°51' E 029°15'0 0.1
2015-Mar-20 07:22N 40°51' E 029°15'0 0.0
2015-Mar-20 06:22N 40°51' E 029°15'0 0.0
2015-Mar-20 05:16N 40°51' E 029°15'0 0.0
2015-Mar-20 04:31N 40°51' E 029°15'0 0.0
2015-Mar-20 03:25N 40°51' E 029°15'0 0.0
2015-Mar-20 02:25N 40°51' E 029°15'0 0.0
2015-Mar-20 01:07N 40°51' E 029°15'0 0.0
2015-Mar-20 00:31N 40°51' E 029°15'0 0.0
2015-Mar-19 23:31N 40°51' E 029°15'0 0.0
2015-Mar-19 22:31N 40°51' E 029°15'0 0.0
2015-Mar-19 21:31N 40°51' E 029°15'  
2015-Mar-17 16:29N 40°57' E 028°53'0 0.0
2015-Mar-17 15:29N 40°57' E 028°54'0 0.0
2015-Mar-17 14:17N 40°57' E 028°53'0 0.0
2015-Mar-17 13:23N 40°57' E 028°53'0 0.0
2015-Mar-17 11:29N 40°57' E 028°54'0 0.0
2015-Mar-17 09:11N 40°57' E 028°54'0 0.1
2015-Mar-17 08:23N 40°57' E 028°54'0 0.1
2015-Mar-17 07:29N 40°57' E 028°54'0 0.0
2015-Mar-17 06:23N 40°57' E 028°54'0 0.0
2015-Mar-17 05:23N 40°57' E 028°54'0 0.0
2015-Mar-17 04:29N 40°57' E 028°54'0 0.0
2015-Mar-17 03:11N 40°57' E 028°54'0 0.0
2015-Mar-17 02:05N 40°57' E 028°54'0 0.0
2015-Mar-17 01:17N 40°57' E 028°54'0 0.0
2015-Mar-17 00:29N 40°57' E 028°54'0 0.0
2015-Mar-16 23:29N 40°57' E 028°54'0 0.0
2015-Mar-16 22:29N 40°57' E 028°54'0 0.0
2015-Mar-16 21:23N 40°57' E 028°54'0 0.0
2015-Mar-16 20:29N 40°57' E 028°54'0 0.0
2015-Mar-16 19:29N 40°57' E 028°54'0 0.0
2015-Mar-16 18:34N 40°57' E 028°54'0 0.0
2015-Mar-16 17:33N 40°57' E 028°54'0 0.0
2015-Mar-16 16:33N 40°57' E 028°54'0 0.0
2015-Mar-16 15:34N 40°57' E 028°54'0 0.0
2015-Mar-16 14:33N 40°57' E 028°54'0 0.0
2015-Mar-16 13:33N 40°57' E 028°54'0 0.0
2015-Mar-16 12:32N 40°57' E 028°54'0 0.0
2015-Mar-16 11:32N 40°57' E 028°54'  

Dump ship's entire track history